sensor_id;sensor_type;location;lat;lon;timestamp;temperature;humidity
25346;DHT22;13300;51.032;3.710;2023-09-12T00:01:30;20.50;99.90
25346;DHT22;13300;51.032;3.710;2023-09-12T00:03:58;20.50;99.90
25346;DHT22;13300;51.032;3.710;2023-09-12T00:06:24;20.50;99.90
25346;DHT22;13300;51.032;3.710;2023-09-12T00:08:51;20.50;99.90
25346;DHT22;13300;51.032;3.710;2023-09-12T00:11:16;20.50;99.90
25346;DHT22;13300;51.032;3.710;2023-09-12T00:13:42;20.50;99.90
25346;DHT22;13300;51.032;3.710;2023-09-12T00:16:07;20.50;99.90
25346;DHT22;13300;51.032;3.710;2023-09-12T00:18:36;20.50;99.90
25346;DHT22;13300;51.032;3.710;2023-09-12T00:21:02;20.50;99.90
25346;DHT22;13300;51.032;3.710;2023-09-12T00:23:28;20.50;99.90
25346;DHT22;13300;51.032;3.710;2023-09-12T00:25:53;20.50;99.90
25346;DHT22;13300;51.032;3.710;2023-09-12T00:28:19;20.50;99.90
25346;DHT22;13300;51.032;3.710;2023-09-12T00:30:45;20.50;99.90
25346;DHT22;13300;51.032;3.710;2023-09-12T00:33:11;20.50;99.90
25346;DHT22;13300;51.032;3.710;2023-09-12T00:35:36;20.50;99.90
25346;DHT22;13300;51.032;3.710;2023-09-12T00:38:02;20.50;99.90
25346;DHT22;13300;51.032;3.710;2023-09-12T00:40:28;20.50;99.90
25346;DHT22;13300;51.032;3.710;2023-09-12T00:42:54;20.50;99.90
25346;DHT22;13300;51.032;3.710;2023-09-12T00:45:19;20.60;99.90
25346;DHT22;13300;51.032;3.710;2023-09-12T00:47:45;20.50;99.90
25346;DHT22;13300;51.032;3.710;2023-09-12T00:50:11;20.50;99.90
25346;DHT22;13300;51.032;3.710;2023-09-12T00:52:37;20.50;99.90
25346;DHT22;13300;51.032;3.710;2023-09-12T00:55:03;20.50;99.90
25346;DHT22;13300;51.032;3.710;2023-09-12T00:57:30;20.50;99.90
25346;DHT22;13300;51.032;3.710;2023-09-12T00:59:55;20.50;99.90
25346;DHT22;13300;51.032;3.710;2023-09-12T01:02:22;20.40;99.90
25346;DHT22;13300;51.032;3.710;2023-09-12T01:04:47;20.50;99.90
25346;DHT22;13300;51.032;3.710;2023-09-12T01:07:13;20.40;99.90
25346;DHT22;13300;51.032;3.710;2023-09-12T01:09:39;20.40;99.90
25346;DHT22;13300;51.032;3.710;2023-09-12T01:12:05;20.40;99.90
25346;DHT22;13300;51.032;3.710;2023-09-12T01:14:31;20.40;99.90
25346;DHT22;13300;51.032;3.710;2023-09-12T01:16:57;20.40;99.90
25346;DHT22;13300;51.032;3.710;2023-09-12T01:19:23;20.40;99.90
25346;DHT22;13300;51.032;3.710;2023-09-12T01:24:46;20.30;99.90
25346;DHT22;13300;51.032;3.710;2023-09-12T01:27:34;20.40;99.90
25346;DHT22;13300;51.032;3.710;2023-09-12T01:30:01;20.30;99.90
25346;DHT22;13300;51.032;3.710;2023-09-12T01:32:29;20.40;99.90
25346;DHT22;13300;51.032;3.710;2023-09-12T01:34:54;20.50;99.90
25346;DHT22;13300;51.032;3.710;2023-09-12T01:37:20;20.40;99.90
25346;DHT22;13300;51.032;3.710;2023-09-12T01:39:45;20.30;99.90
25346;DHT22;13300;51.032;3.710;2023-09-12T01:42:18;20.40;99.90
25346;DHT22;13300;51.032;3.710;2023-09-12T01:44:44;20.40;99.90
25346;DHT22;13300;51.032;3.710;2023-09-12T01:47:10;20.40;99.90
25346;DHT22;13300;51.032;3.710;2023-09-12T01:49:37;20.40;99.90
25346;DHT22;13300;51.032;3.710;2023-09-12T01:52:04;20.40;99.90
25346;DHT22;13300;51.032;3.710;2023-09-12T01:54:30;20.40;99.90
25346;DHT22;13300;51.032;3.710;2023-09-12T01:56:57;20.40;99.90
25346;DHT22;13300;51.032;3.710;2023-09-12T01:59:24;20.40;99.90
25346;DHT22;13300;51.032;3.710;2023-09-12T02:01:50;20.40;99.90
25346;DHT22;13300;51.032;3.710;2023-09-12T02:04:16;20.40;99.90
25346;DHT22;13300;51.032;3.710;2023-09-12T02:06:41;20.30;99.90
25346;DHT22;13300;51.032;3.710;2023-09-12T02:09:07;20.30;99.90
25346;DHT22;13300;51.032;3.710;2023-09-12T02:11:32;20.30;99.90
25346;DHT22;13300;51.032;3.710;2023-09-12T02:13:58;20.40;99.90
25346;DHT22;13300;51.032;3.710;2023-09-12T02:16:23;20.40;99.90
25346;DHT22;13300;51.032;3.710;2023-09-12T02:18:49;20.30;99.90
25346;DHT22;13300;51.032;3.710;2023-09-12T02:21:14;20.20;99.90
25346;DHT22;13300;51.032;3.710;2023-09-12T02:23:41;20.20;99.90
25346;DHT22;13300;51.032;3.710;2023-09-12T02:26:07;20.30;99.90
25346;DHT22;13300;51.032;3.710;2023-09-12T02:28:32;20.30;99.90
25346;DHT22;13300;51.032;3.710;2023-09-12T02:30:58;20.30;99.90
25346;DHT22;13300;51.032;3.710;2023-09-12T02:33:23;20.40;99.90
25346;DHT22;13300;51.032;3.710;2023-09-12T02:35:49;20.40;99.90
25346;DHT22;13300;51.032;3.710;2023-09-12T02:38:14;20.40;99.90
25346;DHT22;13300;51.032;3.710;2023-09-12T02:40:40;20.40;99.90
25346;DHT22;13300;51.032;3.710;2023-09-12T02:43:05;20.30;99.90
25346;DHT22;13300;51.032;3.710;2023-09-12T02:45:31;20.30;99.90
25346;DHT22;13300;51.032;3.710;2023-09-12T02:47:56;20.30;99.90
25346;DHT22;13300;51.032;3.710;2023-09-12T02:50:22;20.30;99.90
25346;DHT22;13300;51.032;3.710;2023-09-12T02:52:47;20.30;99.90
25346;DHT22;13300;51.032;3.710;2023-09-12T02:55:13;20.20;99.90
25346;DHT22;13300;51.032;3.710;2023-09-12T02:57:39;20.20;99.90
25346;DHT22;13300;51.032;3.710;2023-09-12T03:00:05;20.20;99.90
25346;DHT22;13300;51.032;3.710;2023-09-12T03:02:32;20.30;99.90
25346;DHT22;13300;51.032;3.710;2023-09-12T03:04:58;20.30;99.90
25346;DHT22;13300;51.032;3.710;2023-09-12T03:07:23;20.20;99.90
25346;DHT22;13300;51.032;3.710;2023-09-12T03:09:49;20.20;99.90
25346;DHT22;13300;51.032;3.710;2023-09-12T03:12:17;20.20;99.90
25346;DHT22;13300;51.032;3.710;2023-09-12T03:14:43;20.20;99.90
25346;DHT22;13300;51.032;3.710;2023-09-12T03:17:09;20.20;99.90
25346;DHT22;13300;51.032;3.710;2023-09-12T03:19:34;20.10;99.90
25346;DHT22;13300;51.032;3.710;2023-09-12T03:22:00;20.10;99.90
25346;DHT22;13300;51.032;3.710;2023-09-12T03:24:25;20.00;99.90
25346;DHT22;13300;51.032;3.710;2023-09-12T03:26:51;20.10;99.90
25346;DHT22;13300;51.032;3.710;2023-09-12T03:29:17;20.00;99.90
25346;DHT22;13300;51.032;3.710;2023-09-12T03:31:42;20.10;99.90
25346;DHT22;13300;51.032;3.710;2023-09-12T03:34:08;20.20;99.90
25346;DHT22;13300;51.032;3.710;2023-09-12T03:36:33;20.20;99.90
25346;DHT22;13300;51.032;3.710;2023-09-12T03:38:59;20.20;99.90
25346;DHT22;13300;51.032;3.710;2023-09-12T03:41:25;20.10;99.90
25346;DHT22;13300;51.032;3.710;2023-09-12T03:43:54;20.10;99.90
25346;DHT22;13300;51.032;3.710;2023-09-12T03:46:20;20.20;99.90
25346;DHT22;13300;51.032;3.710;2023-09-12T03:48:45;20.20;99.90
25346;DHT22;13300;51.032;3.710;2023-09-12T03:51:11;20.20;99.90
25346;DHT22;13300;51.032;3.710;2023-09-12T03:53:36;20.20;99.90
25346;DHT22;13300;51.032;3.710;2023-09-12T03:56:02;20.20;99.90
25346;DHT22;13300;51.032;3.710;2023-09-12T03:58:28;20.20;99.90
25346;DHT22;13300;51.032;3.710;2023-09-12T04:00:53;20.20;99.90
25346;DHT22;13300;51.032;3.710;2023-09-12T04:03:19;20.20;99.90
25346;DHT22;13300;51.032;3.710;2023-09-12T04:05:46;20.10;99.90
25346;DHT22;13300;51.032;3.710;2023-09-12T04:08:12;20.10;99.90
25346;DHT22;13300;51.032;3.710;2023-09-12T04:10:38;20.10;99.90
25346;DHT22;13300;51.032;3.710;2023-09-12T04:13:03;20.10;99.90
25346;DHT22;13300;51.032;3.710;2023-09-12T04:15:29;20.00;99.90
25346;DHT22;13300;51.032;3.710;2023-09-12T04:17:54;20.00;99.90
25346;DHT22;13300;51.032;3.710;2023-09-12T04:20:20;20.10;99.90
25346;DHT22;13300;51.032;3.710;2023-09-12T04:22:46;20.00;99.90
25346;DHT22;13300;51.032;3.710;2023-09-12T04:25:12;20.10;99.90
25346;DHT22;13300;51.032;3.710;2023-09-12T04:27:37;20.10;99.90
25346;DHT22;13300;51.032;3.710;2023-09-12T04:30:03;20.00;99.90
25346;DHT22;13300;51.032;3.710;2023-09-12T04:32:29;20.00;99.90
25346;DHT22;13300;51.032;3.710;2023-09-12T04:34:54;20.00;99.90
25346;DHT22;13300;51.032;3.710;2023-09-12T04:37:20;20.10;99.90
25346;DHT22;13300;51.032;3.710;2023-09-12T04:39:45;20.20;99.90
25346;DHT22;13300;51.032;3.710;2023-09-12T04:42:11;20.30;99.90
25346;DHT22;13300;51.032;3.710;2023-09-12T04:44:38;20.20;99.90
25346;DHT22;13300;51.032;3.710;2023-09-12T04:47:04;20.20;99.90
25346;DHT22;13300;51.032;3.710;2023-09-12T04:49:30;20.20;99.90
25346;DHT22;13300;51.032;3.710;2023-09-12T04:51:55;20.10;99.90
25346;DHT22;13300;51.032;3.710;2023-09-12T04:54:21;20.20;99.90
25346;DHT22;13300;51.032;3.710;2023-09-12T04:56:46;20.10;99.90
25346;DHT22;13300;51.032;3.710;2023-09-12T04:59:12;20.20;99.90
25346;DHT22;13300;51.032;3.710;2023-09-12T05:01:38;20.20;99.90
25346;DHT22;13300;51.032;3.710;2023-09-12T05:04:03;20.20;99.90
25346;DHT22;13300;51.032;3.710;2023-09-12T05:06:29;20.30;99.90
25346;DHT22;13300;51.032;3.710;2023-09-12T05:08:55;20.40;99.90
25346;DHT22;13300;51.032;3.710;2023-09-12T05:11:21;20.30;99.90
25346;DHT22;13300;51.032;3.710;2023-09-12T05:13:47;20.40;99.90
25346;DHT22;13300;51.032;3.710;2023-09-12T05:16:12;20.40;99.90
25346;DHT22;13300;51.032;3.710;2023-09-12T05:18:38;20.50;99.90
25346;DHT22;13300;51.032;3.710;2023-09-12T05:21:03;20.60;99.90
25346;DHT22;13300;51.032;3.710;2023-09-12T05:23:29;20.50;99.90
25346;DHT22;13300;51.032;3.710;2023-09-12T05:25:55;20.40;99.90
25346;DHT22;13300;51.032;3.710;2023-09-12T05:28:20;20.40;99.90
25346;DHT22;13300;51.032;3.710;2023-09-12T05:30:46;20.40;99.90
25346;DHT22;13300;51.032;3.710;2023-09-12T05:33:11;20.40;99.90
25346;DHT22;13300;51.032;3.710;2023-09-12T05:35:37;20.40;99.90
25346;DHT22;13300;51.032;3.710;2023-09-12T05:38:02;20.40;99.90
25346;DHT22;13300;51.032;3.710;2023-09-12T05:40:28;20.30;99.90
25346;DHT22;13300;51.032;3.710;2023-09-12T05:42:54;20.30;99.90
25346;DHT22;13300;51.032;3.710;2023-09-12T05:45:19;20.30;99.90
25346;DHT22;13300;51.032;3.710;2023-09-12T05:47:45;20.40;99.90
25346;DHT22;13300;51.032;3.710;2023-09-12T05:50:10;20.40;99.90
25346;DHT22;13300;51.032;3.710;2023-09-12T05:52:36;20.50;99.90
25346;DHT22;13300;51.032;3.710;2023-09-12T05:55:03;20.50;99.90
25346;DHT22;13300;51.032;3.710;2023-09-12T05:57:29;20.60;99.90
25346;DHT22;13300;51.032;3.710;2023-09-12T05:59:58;20.60;99.90
25346;DHT22;13300;51.032;3.710;2023-09-12T06:02:25;20.70;99.90
25346;DHT22;13300;51.032;3.710;2023-09-12T06:04:51;20.70;99.90
25346;DHT22;13300;51.032;3.710;2023-09-12T06:07:16;20.70;99.90
25346;DHT22;13300;51.032;3.710;2023-09-12T06:09:42;20.70;99.90
25346;DHT22;13300;51.032;3.710;2023-09-12T06:12:07;20.80;99.90
25346;DHT22;13300;51.032;3.710;2023-09-12T06:14:33;20.80;99.90
25346;DHT22;13300;51.032;3.710;2023-09-12T06:16:58;20.70;99.90
25346;DHT22;13300;51.032;3.710;2023-09-12T06:19:24;20.70;99.90
25346;DHT22;13300;51.032;3.710;2023-09-12T06:21:50;20.60;99.90
25346;DHT22;13300;51.032;3.710;2023-09-12T06:24:22;20.60;99.90
25346;DHT22;13300;51.032;3.710;2023-09-12T06:26:48;20.70;99.90
25346;DHT22;13300;51.032;3.710;2023-09-12T06:29:14;20.70;99.90
25346;DHT22;13300;51.032;3.710;2023-09-12T06:31:40;20.60;99.90
25346;DHT22;13300;51.032;3.710;2023-09-12T06:34:09;20.50;99.90
25346;DHT22;13300;51.032;3.710;2023-09-12T06:36:34;20.60;99.90
25346;DHT22;13300;51.032;3.710;2023-09-12T06:39:00;20.50;99.90
25346;DHT22;13300;51.032;3.710;2023-09-12T06:41:26;20.50;99.90
25346;DHT22;13300;51.032;3.710;2023-09-12T06:43:52;20.60;99.90
25346;DHT22;13300;51.032;3.710;2023-09-12T06:46:18;20.30;99.90
25346;DHT22;13300;51.032;3.710;2023-09-12T06:48:43;20.20;99.90
25346;DHT22;13300;51.032;3.710;2023-09-12T06:51:10;20.20;99.90
25346;DHT22;13300;51.032;3.710;2023-09-12T06:53:36;20.10;99.90
25346;DHT22;13300;51.032;3.710;2023-09-12T06:56:04;20.00;99.90
25346;DHT22;13300;51.032;3.710;2023-09-12T06:58:30;19.80;99.90
25346;DHT22;13300;51.032;3.710;2023-09-12T07:01:01;19.60;99.90
25346;DHT22;13300;51.032;3.710;2023-09-12T07:03:26;19.50;99.90
25346;DHT22;13300;51.032;3.710;2023-09-12T07:05:52;19.50;99.90
25346;DHT22;13300;51.032;3.710;2023-09-12T07:08:17;19.60;99.90
25346;DHT22;13300;51.032;3.710;2023-09-12T07:10:43;19.80;99.90
25346;DHT22;13300;51.032;3.710;2023-09-12T07:13:10;19.90;99.90
25346;DHT22;13300;51.032;3.710;2023-09-12T07:15:35;20.00;99.90
25346;DHT22;13300;51.032;3.710;2023-09-12T07:18:01;20.00;99.90
25346;DHT22;13300;51.032;3.710;2023-09-12T07:20:27;20.10;99.90
25346;DHT22;13300;51.032;3.710;2023-09-12T07:22:53;20.20;99.90
25346;DHT22;13300;51.032;3.710;2023-09-12T07:25:18;20.30;99.90
25346;DHT22;13300;51.032;3.710;2023-09-12T07:27:46;20.30;99.90
25346;DHT22;13300;51.032;3.710;2023-09-12T07:30:11;20.40;99.90
25346;DHT22;13300;51.032;3.710;2023-09-12T07:32:37;20.40;99.90
25346;DHT22;13300;51.032;3.710;2023-09-12T07:35:03;20.50;99.90
25346;DHT22;13300;51.032;3.710;2023-09-12T07:37:28;20.40;99.90
25346;DHT22;13300;51.032;3.710;2023-09-12T07:43:02;20.60;99.90
25346;DHT22;13300;51.032;3.710;2023-09-12T07:45:28;20.70;99.90
25346;DHT22;13300;51.032;3.710;2023-09-12T07:47:55;20.80;99.90
25346;DHT22;13300;51.032;3.710;2023-09-12T07:50:20;20.90;99.90
25346;DHT22;13300;51.032;3.710;2023-09-12T07:52:46;20.90;99.90
25346;DHT22;13300;51.032;3.710;2023-09-12T07:55:11;20.90;99.90
25346;DHT22;13300;51.032;3.710;2023-09-12T07:57:37;20.70;99.90
25346;DHT22;13300;51.032;3.710;2023-09-12T08:00:03;20.50;99.90
25346;DHT22;13300;51.032;3.710;2023-09-12T08:02:30;20.30;99.90
25346;DHT22;13300;51.032;3.710;2023-09-12T08:04:55;20.30;99.90
25346;DHT22;13300;51.032;3.710;2023-09-12T08:07:21;20.20;99.90
25346;DHT22;13300;51.032;3.710;2023-09-12T08:09:51;20.20;99.90
25346;DHT22;13300;51.032;3.710;2023-09-12T08:12:17;20.20;99.90
25346;DHT22;13300;51.032;3.710;2023-09-12T08:14:43;20.30;99.90
25346;DHT22;13300;51.032;3.710;2023-09-12T08:17:10;20.00;99.90
25346;DHT22;13300;51.032;3.710;2023-09-12T08:19:36;20.10;99.90
25346;DHT22;13300;51.032;3.710;2023-09-12T08:22:01;20.30;99.90
25346;DHT22;13300;51.032;3.710;2023-09-12T08:24:27;20.40;99.90
25346;DHT22;13300;51.032;3.710;2023-09-12T08:26:52;20.70;99.90
25346;DHT22;13300;51.032;3.710;2023-09-12T08:29:18;21.00;99.90
25346;DHT22;13300;51.032;3.710;2023-09-12T08:31:43;21.10;99.90
25346;DHT22;13300;51.032;3.710;2023-09-12T08:34:12;21.20;99.90
25346;DHT22;13300;51.032;3.710;2023-09-12T08:36:37;20.70;99.90
25346;DHT22;13300;51.032;3.710;2023-09-12T08:39:03;20.90;99.90
25346;DHT22;13300;51.032;3.710;2023-09-12T08:41:30;21.00;99.90
25346;DHT22;13300;51.032;3.710;2023-09-12T08:43:55;21.20;99.90
25346;DHT22;13300;51.032;3.710;2023-09-12T08:46:21;21.00;99.90
25346;DHT22;13300;51.032;3.710;2023-09-12T08:48:48;20.90;99.90
25346;DHT22;13300;51.032;3.710;2023-09-12T08:51:14;21.00;99.90
25346;DHT22;13300;51.032;3.710;2023-09-12T08:53:40;21.20;99.90
25346;DHT22;13300;51.032;3.710;2023-09-12T08:56:06;21.10;99.90
25346;DHT22;13300;51.032;3.710;2023-09-12T08:58:32;21.10;99.90
25346;DHT22;13300;51.032;3.710;2023-09-12T09:00:58;21.20;99.90
25346;DHT22;13300;51.032;3.710;2023-09-12T09:03:24;21.50;99.90
25346;DHT22;13300;51.032;3.710;2023-09-12T09:05:51;21.70;99.90
25346;DHT22;13300;51.032;3.710;2023-09-12T09:08:16;21.70;99.90
25346;DHT22;13300;51.032;3.710;2023-09-12T09:11:01;22.00;99.90
25346;DHT22;13300;51.032;3.710;2023-09-12T09:13:31;22.20;99.90
25346;DHT22;13300;51.032;3.710;2023-09-12T09:16:10;22.40;99.90
25346;DHT22;13300;51.032;3.710;2023-09-12T09:21:24;22.60;99.90
25346;DHT22;13300;51.032;3.710;2023-09-12T09:23:51;22.80;99.90
25346;DHT22;13300;51.032;3.710;2023-09-12T09:26:16;22.90;99.90
25346;DHT22;13300;51.032;3.710;2023-09-12T09:28:42;22.30;99.90
25346;DHT22;13300;51.032;3.710;2023-09-12T09:31:11;22.30;99.90
25346;DHT22;13300;51.032;3.710;2023-09-12T09:33:37;22.50;99.90
25346;DHT22;13300;51.032;3.710;2023-09-12T09:36:05;22.60;99.90
25346;DHT22;13300;51.032;3.710;2023-09-12T09:38:30;22.60;99.90
25346;DHT22;13300;51.032;3.710;2023-09-12T09:40:56;22.70;99.90
25346;DHT22;13300;51.032;3.710;2023-09-12T09:43:22;22.70;99.90
25346;DHT22;13300;51.032;3.710;2023-09-12T09:45:48;22.60;99.90
25346;DHT22;13300;51.032;3.710;2023-09-12T09:48:17;22.60;99.90
25346;DHT22;13300;51.032;3.710;2023-09-12T09:50:43;22.40;99.90
25346;DHT22;13300;51.032;3.710;2023-09-12T09:53:08;21.90;99.90
25346;DHT22;13300;51.032;3.710;2023-09-12T09:55:35;21.60;99.90
25346;DHT22;13300;51.032;3.710;2023-09-12T09:58:01;21.40;99.90
25346;DHT22;13300;51.032;3.710;2023-09-12T10:00:27;21.50;99.90
25346;DHT22;13300;51.032;3.710;2023-09-12T10:02:53;21.80;99.90
25346;DHT22;13300;51.032;3.710;2023-09-12T10:05:20;22.00;99.90
25346;DHT22;13300;51.032;3.710;2023-09-12T10:07:48;22.30;99.90
25346;DHT22;13300;51.032;3.710;2023-09-12T10:10:16;22.50;99.90
25346;DHT22;13300;51.032;3.710;2023-09-12T10:12:45;22.60;99.90
25346;DHT22;13300;51.032;3.710;2023-09-12T10:15:12;22.90;99.90
25346;DHT22;13300;51.032;3.710;2023-09-12T10:17:39;23.40;99.90
25346;DHT22;13300;51.032;3.710;2023-09-12T10:20:08;24.10;99.90
25346;DHT22;13300;51.032;3.710;2023-09-12T10:22:38;24.50;99.90
25346;DHT22;13300;51.032;3.710;2023-09-12T10:25:04;24.90;99.90
25346;DHT22;13300;51.032;3.710;2023-09-12T10:27:30;25.10;99.90
25346;DHT22;13300;51.032;3.710;2023-09-12T10:29:56;25.10;99.90
25346;DHT22;13300;51.032;3.710;2023-09-12T10:32:25;25.20;99.90
25346;DHT22;13300;51.032;3.710;2023-09-12T10:34:52;25.40;99.90
25346;DHT22;13300;51.032;3.710;2023-09-12T10:37:19;25.60;99.90
25346;DHT22;13300;51.032;3.710;2023-09-12T10:39:46;25.80;99.90
25346;DHT22;13300;51.032;3.710;2023-09-12T10:42:12;26.00;99.90
25346;DHT22;13300;51.032;3.710;2023-09-12T10:44:38;26.00;99.90
25346;DHT22;13300;51.032;3.710;2023-09-12T10:47:04;26.10;99.90
25346;DHT22;13300;51.032;3.710;2023-09-12T10:49:30;26.30;99.90
25346;DHT22;13300;51.032;3.710;2023-09-12T10:51:56;26.60;99.90
25346;DHT22;13300;51.032;3.710;2023-09-12T10:57:17;27.30;99.90
25346;DHT22;13300;51.032;3.710;2023-09-12T11:02:33;27.90;99.90
25346;DHT22;13300;51.032;3.710;2023-09-12T11:05:00;28.20;99.90
25346;DHT22;13300;51.032;3.710;2023-09-12T11:12:38;28.80;99.90
25346;DHT22;13300;51.032;3.710;2023-09-12T11:15:04;29.10;99.90
25346;DHT22;13300;51.032;3.710;2023-09-12T11:17:38;29.40;99.90
25346;DHT22;13300;51.032;3.710;2023-09-12T11:20:04;29.30;99.90
25346;DHT22;13300;51.032;3.710;2023-09-12T11:22:39;29.30;99.90
25346;DHT22;13300;51.032;3.710;2023-09-12T11:30:18;29.60;99.90
25346;DHT22;13300;51.032;3.710;2023-09-12T11:32:44;30.30;99.90
25346;DHT22;13300;51.032;3.710;2023-09-12T11:35:09;31.10;99.90
25346;DHT22;13300;51.032;3.710;2023-09-12T11:37:35;31.60;99.90
25346;DHT22;13300;51.032;3.710;2023-09-12T11:42:41;32.70;99.90
25346;DHT22;13300;51.032;3.710;2023-09-12T11:45:08;34.10;99.90
25346;DHT22;13300;51.032;3.710;2023-09-12T11:47:33;34.60;99.90
25346;DHT22;13300;51.032;3.710;2023-09-12T11:49:59;34.30;99.90
25346;DHT22;13300;51.032;3.710;2023-09-12T11:52:24;34.30;99.90
25346;DHT22;13300;51.032;3.710;2023-09-12T11:54:50;34.40;99.90
25346;DHT22;13300;51.032;3.710;2023-09-12T11:57:15;34.60;99.90
25346;DHT22;13300;51.032;3.710;2023-09-12T11:59:42;34.90;99.90
25346;DHT22;13300;51.032;3.710;2023-09-12T12:02:12;34.40;99.90
25346;DHT22;13300;51.032;3.710;2023-09-12T12:04:37;33.40;99.90
25346;DHT22;13300;51.032;3.710;2023-09-12T12:07:03;32.40;99.90
25346;DHT22;13300;51.032;3.710;2023-09-12T12:09:29;31.30;99.90
25346;DHT22;13300;51.032;3.710;2023-09-12T12:11:55;30.40;99.90
25346;DHT22;13300;51.032;3.710;2023-09-12T12:14:25;29.80;99.90
25346;DHT22;13300;51.032;3.710;2023-09-12T12:16:51;30.10;99.90
25346;DHT22;13300;51.032;3.710;2023-09-12T12:19:17;30.90;99.90
25346;DHT22;13300;51.032;3.710;2023-09-12T12:21:43;31.80;99.90
25346;DHT22;13300;51.032;3.710;2023-09-12T12:24:13;32.20;99.90
25346;DHT22;13300;51.032;3.710;2023-09-12T12:26:42;32.60;99.90
25346;DHT22;13300;51.032;3.710;2023-09-12T12:29:08;32.70;99.90
25346;DHT22;13300;51.032;3.710;2023-09-12T12:31:34;33.10;99.90
25346;DHT22;13300;51.032;3.710;2023-09-12T12:33:59;33.60;99.90
25346;DHT22;13300;51.032;3.710;2023-09-12T12:36:25;34.10;99.90
25346;DHT22;13300;51.032;3.710;2023-09-12T12:38:51;34.20;99.90
25346;DHT22;13300;51.032;3.710;2023-09-12T12:41:17;34.00;99.90
25346;DHT22;13300;51.032;3.710;2023-09-12T12:43:48;33.80;99.90
25346;DHT22;13300;51.032;3.710;2023-09-12T12:46:14;34.00;99.90
25346;DHT22;13300;51.032;3.710;2023-09-12T12:48:42;34.60;99.90
25346;DHT22;13300;51.032;3.710;2023-09-12T12:56:04;37.30;97.80
25346;DHT22;13300;51.032;3.710;2023-09-12T12:58:29;36.70;96.90
25346;DHT22;13300;51.032;3.710;2023-09-12T13:00:55;35.80;97.80
25346;DHT22;13300;51.032;3.710;2023-09-12T13:03:20;34.30;99.80
25346;DHT22;13300;51.032;3.710;2023-09-12T13:05:46;33.90;99.90
25346;DHT22;13300;51.032;3.710;2023-09-12T13:08:11;34.40;99.70
25346;DHT22;13300;51.032;3.710;2023-09-12T13:10:37;34.20;99.90
25346;DHT22;13300;51.032;3.710;2023-09-12T13:13:03;34.70;99.90
25346;DHT22;13300;51.032;3.710;2023-09-12T13:15:29;35.30;99.50
25346;DHT22;13300;51.032;3.710;2023-09-12T13:17:55;36.00;98.50
25346;DHT22;13300;51.032;3.710;2023-09-12T13:20:20;36.20;97.50
25346;DHT22;13300;51.032;3.710;2023-09-12T13:22:46;36.40;97.00
25346;DHT22;13300;51.032;3.710;2023-09-12T13:25:11;36.20;97.20
25346;DHT22;13300;51.032;3.710;2023-09-12T13:27:37;36.00;97.60
25346;DHT22;13300;51.032;3.710;2023-09-12T13:30:03;36.10;97.80
25346;DHT22;13300;51.032;3.710;2023-09-12T13:32:29;35.80;97.30
25346;DHT22;13300;51.032;3.710;2023-09-12T13:34:54;35.00;97.30
25346;DHT22;13300;51.032;3.710;2023-09-12T13:37:20;34.30;98.60
25346;DHT22;13300;51.032;3.710;2023-09-12T13:39:46;33.90;99.80
25346;DHT22;13300;51.032;3.710;2023-09-12T13:42:14;33.50;99.30
25346;DHT22;13300;51.032;3.710;2023-09-12T13:44:44;33.10;99.90
25346;DHT22;13300;51.032;3.710;2023-09-12T13:47:09;32.60;99.90
25346;DHT22;13300;51.032;3.710;2023-09-12T13:49:35;32.20;99.90
25346;DHT22;13300;51.032;3.710;2023-09-12T13:52:00;32.00;99.90
25346;DHT22;13300;51.032;3.710;2023-09-12T13:54:26;31.70;99.90
25346;DHT22;13300;51.032;3.710;2023-09-12T13:56:51;31.50;99.90
25346;DHT22;13300;51.032;3.710;2023-09-12T13:59:19;31.50;99.90
25346;DHT22;13300;51.032;3.710;2023-09-12T14:01:46;31.50;99.90
25346;DHT22;13300;51.032;3.710;2023-09-12T14:04:11;31.20;99.90
25346;DHT22;13300;51.032;3.710;2023-09-12T14:06:39;30.90;99.90
25346;DHT22;13300;51.032;3.710;2023-09-12T14:09:10;30.80;99.90
25346;DHT22;13300;51.032;3.710;2023-09-12T14:11:35;31.00;99.90
25346;DHT22;13300;51.032;3.710;2023-09-12T14:14:02;31.50;99.90
25346;DHT22;13300;51.032;3.710;2023-09-12T14:32:07;30.40;99.90
25346;DHT22;13300;51.032;3.710;2023-09-12T14:37:46;29.50;99.90
25346;DHT22;13300;51.032;3.710;2023-09-12T14:40:13;29.10;99.90
25346;DHT22;13300;51.032;3.710;2023-09-12T14:42:42;29.10;99.90
25346;DHT22;13300;51.032;3.710;2023-09-12T14:45:08;29.00;99.90
25346;DHT22;13300;51.032;3.710;2023-09-12T14:47:34;28.50;99.90
25346;DHT22;13300;51.032;3.710;2023-09-12T14:50:00;28.10;99.90
25346;DHT22;13300;51.032;3.710;2023-09-12T14:52:25;27.90;99.90
25346;DHT22;13300;51.032;3.710;2023-09-12T14:54:52;27.80;99.90
25346;DHT22;13300;51.032;3.710;2023-09-12T14:57:18;27.70;99.90
25346;DHT22;13300;51.032;3.710;2023-09-12T14:59:44;27.70;99.90
25346;DHT22;13300;51.032;3.710;2023-09-12T15:02:10;27.70;99.90
25346;DHT22;13300;51.032;3.710;2023-09-12T15:04:35;27.70;99.90
25346;DHT22;13300;51.032;3.710;2023-09-12T15:07:01;27.70;99.90
25346;DHT22;13300;51.032;3.710;2023-09-12T15:09:26;27.60;99.90
25346;DHT22;13300;51.032;3.710;2023-09-12T15:11:52;27.50;99.90
25346;DHT22;13300;51.032;3.710;2023-09-12T15:14:17;27.40;99.90
25346;DHT22;13300;51.032;3.710;2023-09-12T15:16:43;27.40;99.90
25346;DHT22;13300;51.032;3.710;2023-09-12T15:19:08;27.20;99.90
25346;DHT22;13300;51.032;3.710;2023-09-12T15:21:34;27.20;99.90
25346;DHT22;13300;51.032;3.710;2023-09-12T15:23:59;27.20;99.90
25346;DHT22;13300;51.032;3.710;2023-09-12T15:26:25;27.30;99.90
25346;DHT22;13300;51.032;3.710;2023-09-12T15:28:50;27.50;99.90
25346;DHT22;13300;51.032;3.710;2023-09-12T15:31:16;27.70;99.90
25346;DHT22;13300;51.032;3.710;2023-09-12T15:33:42;27.80;99.90
25346;DHT22;13300;51.032;3.710;2023-09-12T15:36:07;27.90;99.90
25346;DHT22;13300;51.032;3.710;2023-09-12T15:38:33;28.10;99.90
25346;DHT22;13300;51.032;3.710;2023-09-12T15:40:58;28.30;99.90
25346;DHT22;13300;51.032;3.710;2023-09-12T15:43:28;28.30;99.90
25346;DHT22;13300;51.032;3.710;2023-09-12T15:45:53;28.30;99.90
25346;DHT22;13300;51.032;3.710;2023-09-12T15:48:19;28.20;99.90
25346;DHT22;13300;51.032;3.710;2023-09-12T15:50:44;28.20;99.90
25346;DHT22;13300;51.032;3.710;2023-09-12T15:53:10;28.10;99.90
25346;DHT22;13300;51.032;3.710;2023-09-12T15:55:36;27.50;99.90
25346;DHT22;13300;51.032;3.710;2023-09-12T15:58:01;27.30;99.90
25346;DHT22;13300;51.032;3.710;2023-09-12T16:00:27;27.10;99.90
25346;DHT22;13300;51.032;3.710;2023-09-12T16:02:52;27.00;99.90
25346;DHT22;13300;51.032;3.710;2023-09-12T16:05:18;27.20;99.90
25346;DHT22;13300;51.032;3.710;2023-09-12T16:07:44;27.10;99.90
25346;DHT22;13300;51.032;3.710;2023-09-12T16:10:10;27.10;99.90
25346;DHT22;13300;51.032;3.710;2023-09-12T16:12:37;27.10;99.90
25346;DHT22;13300;51.032;3.710;2023-09-12T16:15:03;27.00;99.90